createdAt,value
2019-05-19T00:00:42.289Z,99413.32
2019-05-19T00:03:10.421Z,99412.97
2019-05-19T00:05:38.426Z,99416.59
2019-05-19T00:08:06.519Z,99412.23
2019-05-19T00:10:34.601Z,99416.36
2019-05-19T00:13:02.605Z,99410.17
2019-05-19T00:15:30.663Z,99410.81
2019-05-19T00:17:58.711Z,99413.09
2019-05-19T00:20:26.787Z,99406.94
2019-05-19T00:22:54.915Z,99403.06
2019-05-19T00:25:23.081Z,99396.02
2019-05-19T00:27:51.076Z,99397.86
2019-05-19T00:30:19.147Z,99404.14
2019-05-19T00:32:47.247Z,99404.27
2019-05-19T00:35:15.409Z,99400.78
2019-05-19T00:37:43.459Z,99400.91
2019-05-19T00:40:11.533Z,99407.19
2019-05-19T00:42:39.575Z,99401.03
2019-05-19T00:45:07.833Z,99401.16
2019-05-19T00:47:35.880Z,99398.62
2019-05-19T00:50:04.183Z,99389.77
2019-05-19T00:52:32.155Z,99394.75
2019-05-19T00:55:00.147Z,99396.08
2019-05-19T00:57:28.195Z,99394.39
2019-05-19T00:59:56.331Z,99396.68
2019-05-19T01:02:24.508Z,99398.52
2019-05-19T01:04:52.718Z,99393.79
2019-05-19T01:07:20.738Z,99388.59
2019-05-19T01:09:48.991Z,99389.92
2019-05-19T01:12:16.982Z,99395.25
2019-05-19T01:14:44.961Z,99391.85
2019-05-19T01:17:13.051Z,99393.69
2019-05-19T01:19:53.881Z,99389.31
2019-05-19T01:22:10.927Z,99387.16
2019-05-19T01:24:38.968Z,99390.77
2019-05-19T01:27:06.983Z,99390.07
2019-05-19T01:29:34.958Z,99384.02
2019-05-19T01:32:02.967Z,99380.48
2019-05-19T01:34:31.007Z,99376.62
2019-05-19T01:36:59.016Z,99370.94
2019-05-19T01:39:27.247Z,99365.27
2019-05-19T01:41:55.432Z,99359.20
2019-05-19T01:44:23.626Z,99359.80
2019-05-19T01:46:51.697Z,99356.31
2019-05-19T01:49:19.747Z,99357.27
2019-05-19T01:51:47.823Z,99357.39
2019-05-19T01:54:16.778Z,99352.56
2019-05-19T01:56:44.904Z,99358.38
2019-05-19T01:59:12.899Z,99353.17
2019-05-19T02:01:41.049Z,99354.63
2019-05-19T02:04:09.103Z,99351.11
2019-05-19T02:06:37.111Z,99350.28
2019-05-19T02:09:06.098Z,99352.09
2019-05-19T02:11:34.117Z,99350.02
2019-05-19T02:14:02.093Z,99347.87
2019-05-19T02:16:30.115Z,99351.86
2019-05-19T02:18:58.110Z,99345.80
2019-05-19T02:21:26.224Z,99340.95
2019-05-19T02:23:54.235Z,99341.08
2019-05-19T02:26:22.312Z,99340.38
2019-05-19T02:28:50.386Z,99340.72
2019-05-19T02:31:18.391Z,99339.98
2019-05-19T02:33:46.377Z,99336.98
2019-05-19T02:36:14.443Z,99338.78
2019-05-19T02:38:42.513Z,99334.31
2019-05-19T02:41:10.541Z,99331.30
2019-05-19T02:43:38.519Z,99335.89
2019-05-19T02:46:06.534Z,99337.70
2019-05-19T02:48:34.583Z,99334.69
2019-05-19T02:51:03.146Z,99338.80
2019-05-19T02:53:31.287Z,99341.12
2019-05-19T02:55:59.265Z,99340.27
2019-05-19T02:58:27.373Z,99344.73
2019-05-19T03:00:55.356Z,99346.57
2019-05-19T03:03:23.520Z,99347.52
2019-05-19T03:05:51.634Z,99350.66
2019-05-19T03:08:19.715Z,99344.59
2019-05-19T03:10:47.682Z,99344.59
2019-05-19T03:13:15.684Z,99346.52
2019-05-19T03:15:43.738Z,99340.84
2019-05-19T03:18:11.810Z,99340.11
2019-05-19T03:20:39.808Z,99338.78
2019-05-19T03:23:07.888Z,99344.23
2019-05-19T03:25:35.868Z,99349.67
2019-05-19T03:28:03.875Z,99350.19
2019-05-19T03:30:49.528Z,99345.80
2019-05-19T03:33:20.371Z,99344.59
2019-05-19T03:35:48.335Z,99343.39
2019-05-19T03:38:16.321Z,99347.16
2019-05-19T03:40:44.295Z,99347.16
2019-05-19T03:43:12.362Z,99348.13
2019-05-19T03:45:40.435Z,99353.07
2019-05-19T03:48:08.431Z,99350.91
2019-05-19T03:50:36.492Z,99351.04
2019-05-19T03:53:04.551Z,99350.30
2019-05-19T03:55:32.595Z,99354.42
2019-05-19T03:58:00.608Z,99357.55
2019-05-19T04:00:28.655Z,99357.20
2019-05-19T04:02:56.660Z,99357.80
2019-05-19T04:05:24.809Z,99362.77
2019-05-19T04:07:52.980Z,99362.89
2019-05-19T04:10:21.100Z,99365.20
2019-05-19T04:12:49.170Z,99368.33
2019-05-19T04:15:17.212Z,99372.91
2019-05-19T04:17:45.366Z,99382.23
2019-05-19T04:20:13.349Z,99380.20
2019-05-19T04:22:41.359Z,99374.48
2019-05-19T04:25:09.423Z,99379.34
2019-05-19T04:27:37.438Z,99375.94
2019-05-19T04:30:05.588Z,99381.27
2019-05-19T04:32:33.605Z,99378.25
2019-05-19T04:35:01.569Z,99371.72
2019-05-19T04:37:29.638Z,99374.02
2019-05-19T04:39:57.645Z,99376.69
2019-05-19T04:42:25.648Z,99378.14
2019-05-19T04:44:53.837Z,99380.41
2019-05-19T04:47:21.939Z,99382.48
2019-05-19T04:49:50.095Z,99379.08
2019-05-19T04:52:18.136Z,99377.28
2019-05-19T04:54:46.211Z,99375.09
2019-05-19T04:57:14.303Z,99374.73
2019-05-19T04:59:42.422Z,99371.22
2019-05-19T05:02:10.475Z,99376.92
2019-05-19T05:04:38.474Z,99380.05
2019-05-19T05:07:06.585Z,99372.08
2019-05-19T05:09:34.604Z,99379.20
2019-05-19T05:12:02.661Z,99380.05
2019-05-19T05:14:30.656Z,99379.58
2019-05-19T05:16:58.626Z,99377.28
2019-05-19T05:19:26.642Z,99377.51
2019-05-19T05:21:54.701Z,99376.06
2019-05-19T05:24:22.707Z,99376.80
2019-05-19T05:26:50.679Z,99377.89
2019-05-19T05:29:18.682Z,99371.11
2019-05-19T05:31:46.652Z,99366.02
2019-05-19T05:34:14.726Z,99367.23
2019-05-19T05:36:42.715Z,99361.79
2019-05-19T05:39:10.785Z,99368.81
2019-05-19T05:41:38.879Z,99359.87
2019-05-19T05:44:07.155Z,99370.97
2019-05-19T05:46:35.202Z,99367.72
2019-05-19T05:49:03.286Z,99365.66
2019-05-19T05:51:31.266Z,99363.58
2019-05-19T05:53:59.381Z,99358.05
2019-05-19T05:56:27.367Z,99363.86
2019-05-19T05:58:55.431Z,99356.60
2019-05-19T06:01:23.568Z,99354.90
2019-05-19T06:03:51.663Z,99359.12
2019-05-19T06:06:19.626Z,99359.60
2019-05-19T06:08:47.627Z,99359.35
2019-05-19T06:11:15.651Z,99354.73
2019-05-19T06:13:43.662Z,99356.31
2019-05-19T06:16:11.707Z,99362.22
2019-05-19T06:18:39.857Z,99359.30
2019-05-19T06:21:07.822Z,99360.38
2019-05-19T06:23:35.973Z,99354.80
2019-05-19T06:26:04.043Z,99359.88
2019-05-19T06:28:32.073Z,99352.14
2019-05-19T06:31:00.113Z,99353.70
2019-05-19T06:33:28.254Z,99346.44
2019-05-19T06:35:56.335Z,99340.84
2019-05-19T06:38:24.468Z,99343.23
2019-05-19T06:40:52.557Z,99343.36
2019-05-19T06:43:20.519Z,99335.11
2019-05-19T06:45:48.607Z,99328.66
2019-05-19T06:48:16.613Z,99334.08
2019-05-19T06:50:44.628Z,99328.50
2019-05-19T06:53:14.455Z,99323.29
2019-05-19T06:55:42.840Z,99327.85
2019-05-19T06:58:10.853Z,99325.91
2019-05-19T07:00:38.846Z,99334.12
2019-05-19T07:03:06.950Z,99325.05
2019-05-19T07:05:34.948Z,99327.59
2019-05-19T07:08:02.982Z,99331.80
2019-05-19T07:10:31.060Z,99327.23
2019-05-19T07:12:59.037Z,99322.11
2019-05-19T07:15:27.124Z,99325.85
2019-05-19T07:17:55.290Z,99320.13
2019-05-19T07:20:23.623Z,99321.20
2019-05-19T07:22:51.598Z,99318.61
2019-05-19T07:25:19.642Z,99317.53
2019-05-19T07:27:47.578Z,99313.27
2019-05-19T07:30:15.766Z,99313.83
2019-05-19T07:32:43.835Z,99313.09
2019-05-19T07:35:11.839Z,99312.81
2019-05-19T07:37:39.963Z,99301.88
2019-05-19T07:40:08.045Z,99304.95
2019-05-19T07:42:36.037Z,99304.69
2019-05-19T07:45:04.071Z,99300.89
2019-05-19T07:47:32.037Z,99300.28
2019-05-19T07:50:00.048Z,99297.83
2019-05-19T07:52:28.025Z,99298.86
2019-05-19T07:54:56.135Z,99302.36
2019-05-19T07:57:24.249Z,99304.41
2019-05-19T07:59:52.249Z,99299.15
2019-05-19T08:02:20.233Z,99295.73
2019-05-19T08:04:48.542Z,99300.94
2019-05-19T08:07:16.527Z,99300.19
2019-05-19T08:09:44.584Z,99297.10
2019-05-19T08:12:12.643Z,99290.50
2019-05-19T08:14:40.796Z,99290.84
2019-05-19T08:17:08.787Z,99290.98
2019-05-19T08:19:36.899Z,99288.86
2019-05-19T08:22:04.831Z,99281.43
2019-05-19T08:24:32.892Z,99283.41
2019-05-19T08:27:00.868Z,99287.28
2019-05-19T08:29:29.056Z,99285.33
2019-05-19T08:31:57.186Z,99280.33
2019-05-19T08:34:25.222Z,99280.53
2019-05-19T08:36:53.522Z,99287.07
2019-05-19T08:39:23.560Z,99286.45
2019-05-19T08:41:51.642Z,99287.16
2019-05-19T08:44:19.631Z,99289.56
2019-05-19T08:46:47.629Z,99288.09
2019-05-19T08:49:15.666Z,99291.81
2019-05-19T08:51:43.820Z,99288.36
2019-05-19T08:54:14.626Z,99293.08
2019-05-19T08:56:41.574Z,99287.59
2019-05-19T08:59:09.559Z,99284.56
2019-05-19T09:01:37.549Z,99290.28
2019-05-19T09:04:05.519Z,99285.28
2019-05-19T09:06:33.535Z,99291.06
2019-05-19T09:09:01.617Z,99287.39
2019-05-19T09:11:29.713Z,99285.91
2019-05-19T09:13:57.687Z,99279.95
2019-05-19T09:16:25.711Z,99287.11
2019-05-19T09:18:54.477Z,99284.92
2019-05-19T09:21:22.577Z,99278.09
2019-05-19T09:23:50.740Z,99276.42
2019-05-19T09:26:18.790Z,99270.08
2019-05-19T09:28:46.778Z,99270.31
2019-05-19T09:31:15.587Z,99268.45
2019-05-19T09:33:43.648Z,99264.31
2019-05-19T09:36:11.829Z,99266.36
2019-05-19T09:38:39.911Z,99264.53
2019-05-19T09:41:07.927Z,99264.39
2019-05-19T09:43:35.910Z,99261.72
2019-05-19T09:46:05.631Z,99256.58
2019-05-19T09:48:33.799Z,99255.81
2019-05-19T09:51:01.770Z,99253.81
2019-05-19T09:53:29.908Z,99259.77
2019-05-19T09:55:57.927Z,99242.23
2019-05-19T09:58:25.975Z,99245.77
2019-05-19T10:00:54.061Z,99246.45
2019-05-19T10:03:22.018Z,99245.77
2019-05-19T10:05:50.038Z,99247.59
2019-05-19T10:08:22.651Z,99240.76
2019-05-19T10:11:09.818Z,99245.48
2019-05-19T10:13:37.974Z,99232.45
2019-05-19T10:16:06.165Z,99236.80
2019-05-19T10:18:34.280Z,99235.32
2019-05-19T10:21:02.476Z,99239.56
2019-05-19T10:23:30.604Z,99235.59
2019-05-19T10:25:58.615Z,99236.94
2019-05-19T10:28:26.740Z,99237.28
2019-05-19T10:30:54.671Z,99231.59
2019-05-19T10:33:22.728Z,99229.77
2019-05-19T10:35:50.707Z,99232.30
2019-05-19T10:38:18.786Z,99230.25
2019-05-19T10:40:46.855Z,99233.27
2019-05-19T10:43:14.906Z,99228.06
2019-05-19T10:45:44.511Z,99230.73
2019-05-19T10:48:12.581Z,99225.23
2019-05-19T10:50:40.679Z,99232.30
2019-05-19T10:53:08.683Z,99222.94
2019-05-19T10:55:37.170Z,99228.63
2019-05-19T10:58:05.239Z,99220.27
2019-05-19T11:00:33.354Z,99220.12
2019-05-19T11:03:01.426Z,99212.77
2019-05-19T11:05:29.400Z,99218.12
2019-05-19T11:07:57.391Z,99220.17
2019-05-19T11:10:25.379Z,99217.83
2019-05-19T11:12:53.465Z,99219.39
2019-05-19T11:15:21.523Z,99215.72
2019-05-19T11:17:49.606Z,99213.23
2019-05-19T11:20:17.720Z,99214.42
2019-05-19T11:22:45.803Z,99219.30
2019-05-19T11:25:14.019Z,99221.83
2019-05-19T11:27:42.408Z,99213.31
2019-05-19T11:30:10.398Z,99213.17
2019-05-19T11:32:38.481Z,99216.18
2019-05-19T11:35:06.650Z,99215.55
2019-05-19T11:37:34.723Z,99205.82
2019-05-19T11:40:02.824Z,99202.52
2019-05-19T11:42:30.971Z,99201.51
2019-05-19T11:44:59.075Z,99200.55
2019-05-19T11:47:27.279Z,99199.20
2019-05-19T11:49:55.312Z,99198.84
2019-05-19T11:52:23.408Z,99198.84
2019-05-19T11:54:51.414Z,99194.63
2019-05-19T11:57:19.486Z,99191.95
2019-05-19T11:59:47.531Z,99196.31
2019-05-19T12:02:15.679Z,99190.81
2019-05-19T12:04:43.610Z,99193.00
2019-05-19T12:07:11.614Z,99190.17
2019-05-19T12:09:39.656Z,99195.38
2019-05-19T12:12:07.815Z,99193.90
2019-05-19T12:14:35.886Z,99196.77
2019-05-19T12:17:04.089Z,99189.07
2019-05-19T12:19:32.162Z,99185.42
2019-05-19T12:22:00.287Z,99182.38
2019-05-19T12:24:28.392Z,99188.59
2019-05-19T12:26:56.386Z,99182.23
2019-05-19T12:29:24.459Z,99180.41
2019-05-19T12:31:52.529Z,99175.55
2019-05-19T12:34:20.640Z,99178.59
2019-05-19T12:36:48.695Z,99183.64
2019-05-19T12:39:16.706Z,99173.28
2019-05-19T12:41:44.752Z,99172.98
2019-05-19T12:44:12.863Z,99183.05
2019-05-19T12:46:40.833Z,99178.04
2019-05-19T12:49:08.935Z,99180.91
2019-05-19T12:51:37.091Z,99175.41
2019-05-19T12:54:05.184Z,99176.95
2019-05-19T12:56:39.915Z,99181.16
2019-05-19T12:59:03.157Z,99174.80
2019-05-19T13:01:31.273Z,99171.16
2019-05-19T13:03:59.352Z,99163.47
2019-05-19T13:06:27.398Z,99161.78
2019-05-19T13:08:55.391Z,99161.78
2019-05-19T13:11:23.555Z,99165.80
2019-05-19T13:13:51.599Z,99164.62
2019-05-19T13:16:19.685Z,99161.78
2019-05-19T13:18:47.682Z,99159.59
2019-05-19T13:21:15.740Z,99155.77
2019-05-19T13:23:43.931Z,99158.30
2019-05-19T13:26:11.924Z,99151.82
2019-05-19T13:28:39.942Z,99154.83
2019-05-19T13:31:07.993Z,99152.34
2019-05-19T13:33:36.058Z,99156.61
2019-05-19T13:36:04.146Z,99156.30
2019-05-19T13:38:32.230Z,99155.16
2019-05-19T13:41:00.372Z,99155.70
2019-05-19T13:43:28.559Z,99151.53
2019-05-19T13:45:56.639Z,99153.05
2019-05-19T13:48:24.751Z,99146.05
2019-05-19T13:50:52.889Z,99147.58
2019-05-19T13:53:21.164Z,99136.93
2019-05-19T13:55:49.327Z,99138.94
2019-05-19T13:58:17.458Z,99141.86
2019-05-19T14:00:45.526Z,99143.22
2019-05-19T14:03:13.685Z,99144.26
2019-05-19T14:05:41.731Z,99143.64
2019-05-19T14:08:09.731Z,99138.50
2019-05-19T14:10:37.725Z,99139.69
2019-05-19T14:13:05.806Z,99138.37
2019-05-19T14:15:33.851Z,99143.59
2019-05-19T14:18:01.834Z,99138.08
2019-05-19T14:20:29.822Z,99137.77
2019-05-19T14:22:57.806Z,99125.41
2019-05-19T14:25:25.877Z,99126.43
2019-05-19T14:27:53.927Z,99137.95
2019-05-19T14:30:21.937Z,99128.91
2019-05-19T14:32:49.986Z,99131.28
2019-05-19T14:35:18.088Z,99135.16
2019-05-19T14:37:46.167Z,99131.67
2019-05-19T14:40:14.163Z,99133.03
2019-05-19T14:42:49.826Z,99133.08
2019-05-19T14:45:17.848Z,99137.13
2019-05-19T14:47:45.816Z,99135.13
2019-05-19T14:50:13.995Z,99129.25
2019-05-19T14:52:42.035Z,99124.75
2019-05-19T14:55:10.056Z,99130.16
2019-05-19T14:57:44.917Z,99123.16
2019-05-19T15:00:08.163Z,99124.87
2019-05-19T15:02:36.256Z,99121.02
2019-05-19T15:05:04.663Z,99128.31
2019-05-19T15:07:32.706Z,99131.66
2019-05-19T15:10:00.803Z,99139.47
2019-05-19T15:12:28.860Z,99131.02
2019-05-19T15:14:56.975Z,99131.02
2019-05-19T15:17:24.963Z,99131.33
2019-05-19T15:19:53.079Z,99130.31
2019-05-19T15:22:21.058Z,99124.78
2019-05-19T15:24:49.096Z,99118.55
2019-05-19T15:27:17.067Z,99120.91
2019-05-19T15:29:45.135Z,99114.53
2019-05-19T15:32:13.200Z,99110.83
2019-05-19T15:34:41.199Z,99114.37
2019-05-19T15:37:09.348Z,99118.56
2019-05-19T15:39:37.423Z,99119.09
2019-05-19T15:42:05.485Z,99127.67
2019-05-19T15:44:33.695Z,99125.65
2019-05-19T15:47:01.759Z,99119.17
2019-05-19T15:49:29.919Z,99111.62
2019-05-19T15:52:02.894Z,99105.27
2019-05-19T15:54:27.750Z,99107.27
2019-05-19T15:56:55.740Z,99101.73
2019-05-19T15:59:23.856Z,99104.95
2019-05-19T16:01:51.907Z,99099.09
2019-05-19T16:04:19.924Z,99103.97
2019-05-19T16:06:47.919Z,99093.56
2019-05-19T16:09:15.985Z,99089.56
2019-05-19T16:11:44.035Z,99092.74
2019-05-19T16:14:12.162Z,99093.59
2019-05-19T16:16:40.158Z,99091.77
2019-05-19T16:19:08.235Z,99084.06
2019-05-19T16:21:36.326Z,99085.89
2019-05-19T16:24:04.383Z,99085.56
2019-05-19T16:26:32.387Z,99088.58
2019-05-19T16:29:00.462Z,99092.80
2019-05-19T16:31:28.470Z,99087.59
2019-05-19T16:33:56.631Z,99090.30
2019-05-19T16:36:24.650Z,99087.61
2019-05-19T16:38:52.783Z,99090.81
2019-05-19T16:41:20.909Z,99089.33
2019-05-19T16:43:48.987Z,99089.32
2019-05-19T16:46:17.108Z,99092.20
2019-05-19T16:48:45.079Z,99097.90
2019-05-19T16:51:13.080Z,99101.93
2019-05-19T16:53:41.535Z,99098.39
2019-05-19T16:56:09.532Z,99098.23
2019-05-19T16:58:45.480Z,99095.54
2019-05-19T17:01:07.451Z,99097.74
2019-05-19T17:03:35.451Z,99098.08
2019-05-19T17:06:03.603Z,99098.34
2019-05-19T17:08:31.595Z,99094.16
2019-05-19T17:10:59.699Z,99095.32
2019-05-19T17:13:27.775Z,99087.76
2019-05-19T17:15:55.846Z,99088.94
2019-05-19T17:18:23.904Z,99086.25
2019-05-19T17:20:52.081Z,99085.73
2019-05-19T17:23:20.129Z,99083.05
2019-05-19T17:25:48.215Z,99085.57
2019-05-19T17:28:16.259Z,99084.88
2019-05-19T17:30:44.489Z,99089.44
2019-05-19T17:33:12.667Z,99092.28
2019-05-19T17:35:40.775Z,99090.97
2019-05-19T17:38:08.867Z,99090.28
2019-05-19T17:40:36.958Z,99091.29
2019-05-19T17:43:05.082Z,99091.12
2019-05-19T17:45:33.099Z,99098.52
2019-05-19T17:48:09.721Z,99100.19
2019-05-19T17:50:31.727Z,99107.09
2019-05-19T17:52:59.779Z,99105.07
2019-05-19T17:55:27.741Z,99103.73
2019-05-19T17:57:56.207Z,99107.77
2019-05-19T18:00:33.067Z,99107.93
2019-05-19T18:03:01.129Z,99112.78
2019-05-19T18:05:29.223Z,99107.25
2019-05-19T18:07:57.316Z,99109.41
2019-05-19T18:10:25.481Z,99106.23
2019-05-19T18:12:53.549Z,99111.73
2019-05-19T18:15:21.621Z,99107.55
2019-05-19T18:17:49.643Z,99121.10
2019-05-19T18:20:23.711Z,99114.06
2019-05-19T18:22:47.484Z,99113.70
2019-05-19T18:25:15.531Z,99114.67
2019-05-19T18:27:43.570Z,99116.66
2019-05-19T18:30:11.832Z,99123.37
2019-05-19T18:32:39.847Z,99126.99
2019-05-19T18:35:07.965Z,99121.12
2019-05-19T18:37:36.111Z,99130.48
2019-05-19T18:40:04.317Z,99126.94
2019-05-19T18:42:32.312Z,99139.33
2019-05-19T18:45:00.380Z,99129.59
2019-05-19T18:47:28.467Z,99135.28
2019-05-19T18:49:56.479Z,99141.45
2019-05-19T18:52:24.699Z,99144.45
2019-05-19T18:54:52.708Z,99146.97
2019-05-19T18:57:20.707Z,99151.80
2019-05-19T18:59:48.762Z,99146.91
2019-05-19T19:02:16.939Z,99155.59
2019-05-19T19:04:44.995Z,99156.77
2019-05-19T19:07:13.098Z,99161.10
2019-05-19T19:09:41.242Z,99164.95
2019-05-19T19:12:09.247Z,99164.74
2019-05-19T19:14:37.227Z,99164.56
2019-05-19T19:17:05.238Z,99165.73
2019-05-19T19:19:33.280Z,99163.20
2019-05-19T19:22:01.384Z,99165.67
2019-05-19T19:24:29.522Z,99169.03
2019-05-19T19:26:57.528Z,99170.53
2019-05-19T19:29:25.659Z,99167.64
2019-05-19T19:31:53.792Z,99170.15
2019-05-19T19:34:21.845Z,99167.78
2019-05-19T19:36:49.847Z,99174.15
2019-05-19T19:39:17.847Z,99184.50
2019-05-19T19:41:47.757Z,99179.42
2019-05-19T19:44:15.828Z,99181.28
2019-05-19T19:46:43.872Z,99185.94
2019-05-19T19:49:11.918Z,99187.92
2019-05-19T19:51:39.996Z,99186.41
2019-05-19T19:54:08.063Z,99192.41
2019-05-19T19:56:36.096Z,99196.09
2019-05-19T19:59:04.115Z,99190.89
2019-05-19T20:01:32.193Z,99196.40
2019-05-19T20:04:00.159Z,99195.55
2019-05-19T20:06:28.300Z,99191.34
2019-05-19T20:08:56.238Z,99193.69
2019-05-19T20:11:24.210Z,99203.23
2019-05-19T20:13:52.217Z,99203.86
2019-05-19T20:16:20.191Z,99207.03
2019-05-19T20:18:48.184Z,99208.03
2019-05-19T20:21:16.238Z,99202.98
2019-05-19T20:23:44.268Z,99207.64
2019-05-19T20:26:12.251Z,99206.30
2019-05-19T20:28:40.343Z,99207.30
2019-05-19T20:31:08.395Z,99218.66
2019-05-19T20:33:36.403Z,99218.81
2019-05-19T20:36:04.454Z,99220.30
2019-05-19T20:38:32.523Z,99217.78
2019-05-19T20:41:00.565Z,99220.12
2019-05-19T20:43:28.728Z,99218.08
2019-05-19T20:45:56.735Z,99218.94
2019-05-19T20:48:24.754Z,99216.56
2019-05-19T20:50:52.722Z,99218.91
2019-05-19T20:53:20.719Z,99216.01
2019-05-19T20:55:48.762Z,99204.47
2019-05-19T20:58:16.901Z,99206.93
2019-05-19T21:00:50.493Z,99200.75
2019-05-19T21:03:14.531Z,99209.28
2019-05-19T21:05:42.621Z,99213.11
2019-05-19T21:08:10.579Z,99210.58
2019-05-19T21:10:38.649Z,99212.89
2019-05-19T21:13:06.699Z,99210.88
2019-05-19T21:15:34.729Z,99215.05
2019-05-19T21:18:02.779Z,99217.73
2019-05-19T21:20:30.752Z,99223.72
2019-05-19T21:22:58.760Z,99223.02
2019-05-19T21:25:26.783Z,99227.03
2019-05-19T21:27:54.912Z,99222.34
2019-05-19T21:30:22.962Z,99223.31
2019-05-19T21:32:51.132Z,99227.00
2019-05-19T21:35:19.128Z,99223.13
2019-05-19T21:37:47.205Z,99217.59
2019-05-19T21:40:15.183Z,99219.89
2019-05-19T21:42:43.196Z,99222.72
2019-05-19T21:45:11.201Z,99219.38
2019-05-19T21:47:39.334Z,99213.66
2019-05-19T21:50:07.407Z,99216.48
2019-05-19T21:52:35.382Z,99217.48
2019-05-19T21:55:03.543Z,99219.27
2019-05-19T21:57:31.514Z,99221.27
2019-05-19T21:59:59.590Z,99215.92
2019-05-19T22:02:27.714Z,99216.07
2019-05-19T22:04:55.788Z,99219.72
2019-05-19T22:07:42.822Z,99221.58
2019-05-19T22:10:11.037Z,99227.89
2019-05-19T22:12:39.028Z,99228.41
2019-05-19T22:15:07.100Z,99231.58
2019-05-19T22:17:35.148Z,99228.19
2019-05-19T22:20:03.292Z,99227.00
2019-05-19T22:22:31.260Z,99236.03
2019-05-19T22:24:59.408Z,99237.03
2019-05-19T22:27:27.383Z,99238.00
2019-05-19T22:29:55.453Z,99246.70
2019-05-19T22:32:23.415Z,99240.83
2019-05-19T22:34:51.410Z,99248.03
2019-05-19T22:37:19.454Z,99244.17
2019-05-19T22:39:47.452Z,99246.33
2019-05-19T22:42:15.414Z,99255.02
2019-05-19T22:44:43.438Z,99252.34
2019-05-19T22:47:11.492Z,99255.84
2019-05-19T22:49:39.638Z,99254.31
2019-05-19T22:52:07.696Z,99255.31
2019-05-19T22:54:35.726Z,99247.92
2019-05-19T22:57:03.665Z,99244.39
2019-05-19T22:59:31.667Z,99241.86
2019-05-19T23:01:59.649Z,99239.70
2019-05-19T23:04:27.653Z,99236.66
2019-05-19T23:06:55.766Z,99233.64
2019-05-19T23:09:23.848Z,99234.13
2019-05-19T23:11:51.895Z,99235.46
2019-05-19T23:14:19.904Z,99233.45
2019-05-19T23:16:47.947Z,99236.61
2019-05-19T23:19:15.939Z,99233.59
2019-05-19T23:21:43.990Z,99236.42
2019-05-19T23:24:12.064Z,99231.70
2019-05-19T23:26:40.038Z,99233.03
2019-05-19T23:29:08.043Z,99232.70
2019-05-19T23:31:36.102Z,99232.84
2019-05-19T23:34:04.095Z,99229.80
2019-05-19T23:36:32.062Z,99220.75
2019-05-19T23:39:00.038Z,99222.91
2019-05-19T23:41:28.184Z,99220.38
2019-05-19T23:43:56.194Z,99220.90
2019-05-19T23:46:24.263Z,99217.86
2019-05-19T23:48:52.243Z,99218.00
2019-05-19T23:51:20.320Z,99214.98
2019-05-19T23:53:48.375Z,99209.78
2019-05-19T23:56:16.438Z,99212.45
2019-05-19T23:58:44.415Z,99212.12
